sensor_id;sensor_type;location;lat;lon;timestamp;P1;durP1;ratioP1;P2;durP2;ratioP2
11539;SDS011;5826;54.756;9.192;2024-02-14T00:01:14;15.57;;;10.95;;
11539;SDS011;5826;54.756;9.192;2024-02-14T00:03:40;11.13;;;9.47;;
11539;SDS011;5826;54.756;9.192;2024-02-14T00:06:05;15.03;;;11.33;;
11539;SDS011;5826;54.756;9.192;2024-02-14T00:08:31;15.07;;;10.97;;
11539;SDS011;5826;54.756;9.192;2024-02-14T00:10:57;14.33;;;10.47;;
11539;SDS011;5826;54.756;9.192;2024-02-14T00:13:22;10.53;;;8.93;;
11539;SDS011;5826;54.756;9.192;2024-02-14T00:15:48;15.63;;;11.03;;
11539;SDS011;5826;54.756;9.192;2024-02-14T00:18:13;10.33;;;8.90;;
11539;SDS011;5826;54.756;9.192;2024-02-14T00:20:40;14.17;;;10.90;;
11539;SDS011;5826;54.756;9.192;2024-02-14T00:23:05;16.13;;;10.87;;
11539;SDS011;5826;54.756;9.192;2024-02-14T00:25:31;14.60;;;10.17;;
11539;SDS011;5826;54.756;9.192;2024-02-14T00:27:57;12.00;;;9.90;;
11539;SDS011;5826;54.756;9.192;2024-02-14T00:30:26;8.63;;;7.63;;
11539;SDS011;5826;54.756;9.192;2024-02-14T00:32:51;11.50;;;7.33;;
11539;SDS011;5826;54.756;9.192;2024-02-14T00:35:17;11.18;;;8.15;;
11539;SDS011;5826;54.756;9.192;2024-02-14T00:37:42;14.20;;;10.73;;
11539;SDS011;5826;54.756;9.192;2024-02-14T00:40:08;14.57;;;10.37;;
11539;SDS011;5826;54.756;9.192;2024-02-14T00:42:34;9.80;;;8.55;;
11539;SDS011;5826;54.756;9.192;2024-02-14T00:44:59;15.07;;;10.57;;
11539;SDS011;5826;54.756;9.192;2024-02-14T00:47:25;10.57;;;8.33;;
11539;SDS011;5826;54.756;9.192;2024-02-14T00:49:50;12.10;;;10.27;;
11539;SDS011;5826;54.756;9.192;2024-02-14T00:52:17;10.07;;;8.53;;
11539;SDS011;5826;54.756;9.192;2024-02-14T00:54:42;12.60;;;10.10;;
11539;SDS011;5826;54.756;9.192;2024-02-14T00:57:08;11.60;;;9.30;;
11539;SDS011;5826;54.756;9.192;2024-02-14T00:59:33;10.73;;;9.33;;
11539;SDS011;5826;54.756;9.192;2024-02-14T01:01:59;9.73;;;7.78;;
11539;SDS011;5826;54.756;9.192;2024-02-14T01:04:24;10.53;;;7.87;;
11539;SDS011;5826;54.756;9.192;2024-02-14T01:06:50;8.20;;;6.73;;
11539;SDS011;5826;54.756;9.192;2024-02-14T01:09:16;8.67;;;6.60;;
11539;SDS011;5826;54.756;9.192;2024-02-14T01:11:43;10.77;;;8.77;;
11539;SDS011;5826;54.756;9.192;2024-02-14T01:14:09;6.90;;;6.07;;
11539;SDS011;5826;54.756;9.192;2024-02-14T01:16:41;11.13;;;7.90;;
11539;SDS011;5826;54.756;9.192;2024-02-14T01:19:07;11.32;;;8.35;;
11539;SDS011;5826;54.756;9.192;2024-02-14T01:21:33;6.10;;;5.50;;
11539;SDS011;5826;54.756;9.192;2024-02-14T01:23:58;8.47;;;6.10;;
11539;SDS011;5826;54.756;9.192;2024-02-14T01:26:24;5.90;;;5.30;;
11539;SDS011;5826;54.756;9.192;2024-02-14T01:28:49;7.57;;;6.17;;
11539;SDS011;5826;54.756;9.192;2024-02-14T01:31:15;6.72;;;4.63;;
11539;SDS011;5826;54.756;9.192;2024-02-14T01:33:40;5.03;;;4.53;;
11539;SDS011;5826;54.756;9.192;2024-02-14T01:36:06;6.65;;;5.82;;
11539;SDS011;5826;54.756;9.192;2024-02-14T01:38:31;9.18;;;5.60;;
11539;SDS011;5826;54.756;9.192;2024-02-14T01:41:00;5.97;;;4.60;;
11539;SDS011;5826;54.756;9.192;2024-02-14T01:43:27;6.95;;;6.25;;
11539;SDS011;5826;54.756;9.192;2024-02-14T01:45:54;4.95;;;4.22;;
11539;SDS011;5826;54.756;9.192;2024-02-14T01:48:20;6.78;;;4.80;;
11539;SDS011;5826;54.756;9.192;2024-02-14T01:50:46;6.30;;;5.00;;
11539;SDS011;5826;54.756;9.192;2024-02-14T01:53:12;5.78;;;4.82;;
11539;SDS011;5826;54.756;9.192;2024-02-14T01:55:38;6.00;;;4.95;;
11539;SDS011;5826;54.756;9.192;2024-02-14T01:58:03;4.78;;;4.28;;
11539;SDS011;5826;54.756;9.192;2024-02-14T02:00:32;6.60;;;5.43;;
11539;SDS011;5826;54.756;9.192;2024-02-14T02:02:59;7.50;;;4.88;;
11539;SDS011;5826;54.756;9.192;2024-02-14T02:05:25;6.53;;;4.57;;
11539;SDS011;5826;54.756;9.192;2024-02-14T02:07:50;6.43;;;5.20;;
11539;SDS011;5826;54.756;9.192;2024-02-14T02:10:16;6.28;;;4.82;;
11539;SDS011;5826;54.756;9.192;2024-02-14T02:12:42;5.30;;;4.80;;
11539;SDS011;5826;54.756;9.192;2024-02-14T02:15:07;5.38;;;4.75;;
11539;SDS011;5826;54.756;9.192;2024-02-14T02:17:39;5.60;;;4.70;;
11539;SDS011;5826;54.756;9.192;2024-02-14T02:20:05;6.50;;;5.90;;
11539;SDS011;5826;54.756;9.192;2024-02-14T02:22:34;5.43;;;4.93;;
11539;SDS011;5826;54.756;9.192;2024-02-14T02:25:03;7.57;;;6.15;;
11539;SDS011;5826;54.756;9.192;2024-02-14T02:27:32;6.88;;;5.50;;
11539;SDS011;5826;54.756;9.192;2024-02-14T02:30:00;5.60;;;4.95;;
11539;SDS011;5826;54.756;9.192;2024-02-14T02:32:26;8.15;;;6.60;;
11539;SDS011;5826;54.756;9.192;2024-02-14T02:34:51;6.30;;;5.53;;
11539;SDS011;5826;54.756;9.192;2024-02-14T02:37:17;7.47;;;6.68;;
11539;SDS011;5826;54.756;9.192;2024-02-14T02:39:43;7.40;;;6.10;;
11539;SDS011;5826;54.756;9.192;2024-02-14T02:42:08;7.03;;;5.63;;
11539;SDS011;5826;54.756;9.192;2024-02-14T02:44:35;8.50;;;7.25;;
11539;SDS011;5826;54.756;9.192;2024-02-14T02:47:03;7.13;;;5.30;;
11539;SDS011;5826;54.756;9.192;2024-02-14T02:49:28;6.60;;;5.03;;
11539;SDS011;5826;54.756;9.192;2024-02-14T02:51:54;6.95;;;6.22;;
11539;SDS011;5826;54.756;9.192;2024-02-14T02:54:19;9.27;;;7.60;;
11539;SDS011;5826;54.756;9.192;2024-02-14T02:56:47;8.73;;;7.85;;
11539;SDS011;5826;54.756;9.192;2024-02-14T02:59:12;8.10;;;7.20;;
11539;SDS011;5826;54.756;9.192;2024-02-14T03:01:38;7.60;;;6.88;;
11539;SDS011;5826;54.756;9.192;2024-02-14T03:04:05;7.95;;;6.40;;
11539;SDS011;5826;54.756;9.192;2024-02-14T03:06:30;8.52;;;6.28;;
11539;SDS011;5826;54.756;9.192;2024-02-14T03:08:56;7.78;;;6.68;;
11539;SDS011;5826;54.756;9.192;2024-02-14T03:11:22;5.90;;;5.30;;
11539;SDS011;5826;54.756;9.192;2024-02-14T03:13:47;8.95;;;6.78;;
11539;SDS011;5826;54.756;9.192;2024-02-14T03:16:16;8.03;;;7.23;;
11539;SDS011;5826;54.756;9.192;2024-02-14T03:18:42;6.82;;;5.85;;
11539;SDS011;5826;54.756;9.192;2024-02-14T03:21:08;6.80;;;6.13;;
11539;SDS011;5826;54.756;9.192;2024-02-14T03:23:34;6.50;;;5.90;;
11539;SDS011;5826;54.756;9.192;2024-02-14T03:25:59;7.27;;;5.47;;
11539;SDS011;5826;54.756;9.192;2024-02-14T03:28:25;6.70;;;5.88;;
11539;SDS011;5826;54.756;9.192;2024-02-14T03:30:51;7.55;;;6.65;;
11539;SDS011;5826;54.756;9.192;2024-02-14T03:33:17;7.57;;;6.77;;
11539;SDS011;5826;54.756;9.192;2024-02-14T03:35:42;7.33;;;6.10;;
11539;SDS011;5826;54.756;9.192;2024-02-14T03:38:08;6.40;;;5.80;;
11539;SDS011;5826;54.756;9.192;2024-02-14T03:40:34;10.07;;;9.07;;
11539;SDS011;5826;54.756;9.192;2024-02-14T03:43:00;8.60;;;6.00;;
11539;SDS011;5826;54.756;9.192;2024-02-14T03:45:27;8.93;;;8.03;;
11539;SDS011;5826;54.756;9.192;2024-02-14T03:47:54;7.80;;;7.10;;
11539;SDS011;5826;54.756;9.192;2024-02-14T03:50:21;6.28;;;5.57;;
11539;SDS011;5826;54.756;9.192;2024-02-14T03:52:47;7.53;;;6.63;;
11539;SDS011;5826;54.756;9.192;2024-02-14T03:55:13;9.23;;;7.88;;
11539;SDS011;5826;54.756;9.192;2024-02-14T03:57:39;9.10;;;7.50;;
11539;SDS011;5826;54.756;9.192;2024-02-14T04:00:05;10.23;;;8.38;;
11539;SDS011;5826;54.756;9.192;2024-02-14T04:02:34;9.47;;;7.73;;
11539;SDS011;5826;54.756;9.192;2024-02-14T04:05:00;10.53;;;8.03;;
11539;SDS011;5826;54.756;9.192;2024-02-14T04:07:25;8.82;;;7.43;;
11539;SDS011;5826;54.756;9.192;2024-02-14T04:09:51;9.03;;;8.13;;
11539;SDS011;5826;54.756;9.192;2024-02-14T04:12:17;9.90;;;7.00;;
11539;SDS011;5826;54.756;9.192;2024-02-14T04:14:42;9.45;;;8.27;;
11539;SDS011;5826;54.756;9.192;2024-02-14T04:17:08;10.10;;;9.05;;
11539;SDS011;5826;54.756;9.192;2024-02-14T04:19:33;8.83;;;7.93;;
11539;SDS011;5826;54.756;9.192;2024-02-14T04:21:59;9.15;;;8.07;;
11539;SDS011;5826;54.756;9.192;2024-02-14T04:24:25;8.25;;;6.38;;
11539;SDS011;5826;54.756;9.192;2024-02-14T04:26:50;8.83;;;7.73;;
11539;SDS011;5826;54.756;9.192;2024-02-14T04:29:20;8.67;;;7.80;;
11539;SDS011;5826;54.756;9.192;2024-02-14T04:31:45;12.17;;;10.23;;
11539;SDS011;5826;54.756;9.192;2024-02-14T04:34:11;9.83;;;8.77;;
11539;SDS011;5826;54.756;9.192;2024-02-14T04:36:38;8.37;;;7.57;;
11539;SDS011;5826;54.756;9.192;2024-02-14T04:39:05;10.57;;;8.80;;
11539;SDS011;5826;54.756;9.192;2024-02-14T04:41:30;7.73;;;6.93;;
11539;SDS011;5826;54.756;9.192;2024-02-14T04:43:56;8.53;;;7.33;;
11539;SDS011;5826;54.756;9.192;2024-02-14T04:46:22;6.90;;;6.20;;
11539;SDS011;5826;54.756;9.192;2024-02-14T04:48:47;9.38;;;7.93;;
11539;SDS011;5826;54.756;9.192;2024-02-14T04:51:13;8.57;;;6.87;;
11539;SDS011;5826;54.756;9.192;2024-02-14T04:53:38;7.67;;;6.83;;
11539;SDS011;5826;54.756;9.192;2024-02-14T04:56:04;8.50;;;7.57;;
11539;SDS011;5826;54.756;9.192;2024-02-14T04:58:29;9.60;;;7.63;;
11539;SDS011;5826;54.756;9.192;2024-02-14T05:00:55;10.63;;;9.30;;
11539;SDS011;5826;54.756;9.192;2024-02-14T05:03:21;7.93;;;7.10;;
11539;SDS011;5826;54.756;9.192;2024-02-14T05:05:49;9.23;;;8.33;;
11539;SDS011;5826;54.756;9.192;2024-02-14T05:08:14;9.57;;;8.57;;
11539;SDS011;5826;54.756;9.192;2024-02-14T05:10:40;9.83;;;8.83;;
11539;SDS011;5826;54.756;9.192;2024-02-14T05:13:06;8.60;;;7.37;;
11539;SDS011;5826;54.756;9.192;2024-02-14T05:15:31;11.35;;;8.85;;
11539;SDS011;5826;54.756;9.192;2024-02-14T05:17:57;7.77;;;7.00;;
11539;SDS011;5826;54.756;9.192;2024-02-14T05:20:22;7.33;;;6.63;;
11539;SDS011;5826;54.756;9.192;2024-02-14T05:22:48;9.30;;;6.40;;
11539;SDS011;5826;54.756;9.192;2024-02-14T05:25:13;8.67;;;7.77;;
11539;SDS011;5826;54.756;9.192;2024-02-14T05:27:39;7.50;;;6.70;;
11539;SDS011;5826;54.756;9.192;2024-02-14T05:30:05;8.27;;;6.57;;
11539;SDS011;5826;54.756;9.192;2024-02-14T05:32:33;8.77;;;7.87;;
11539;SDS011;5826;54.756;9.192;2024-02-14T05:34:58;12.30;;;10.63;;
11539;SDS011;5826;54.756;9.192;2024-02-14T05:37:24;10.97;;;8.77;;
11539;SDS011;5826;54.756;9.192;2024-02-14T05:39:52;9.95;;;8.25;;
11539;SDS011;5826;54.756;9.192;2024-02-14T05:42:18;8.83;;;6.60;;
11539;SDS011;5826;54.756;9.192;2024-02-14T05:44:44;9.77;;;8.73;;
11539;SDS011;5826;54.756;9.192;2024-02-14T05:47:09;9.80;;;8.83;;
11539;SDS011;5826;54.756;9.192;2024-02-14T05:49:37;8.93;;;7.95;;
11539;SDS011;5826;54.756;9.192;2024-02-14T05:52:03;10.33;;;8.87;;
11539;SDS011;5826;54.756;9.192;2024-02-14T05:54:29;9.97;;;8.67;;
11539;SDS011;5826;54.756;9.192;2024-02-14T05:56:55;8.27;;;7.47;;
11539;SDS011;5826;54.756;9.192;2024-02-14T05:59:21;9.23;;;7.63;;
11539;SDS011;5826;54.756;9.192;2024-02-14T06:01:47;9.30;;;8.40;;
11539;SDS011;5826;54.756;9.192;2024-02-14T06:04:12;7.87;;;6.87;;
11539;SDS011;5826;54.756;9.192;2024-02-14T06:06:38;8.15;;;7.32;;
11539;SDS011;5826;54.756;9.192;2024-02-14T06:09:03;9.10;;;7.87;;
11539;SDS011;5826;54.756;9.192;2024-02-14T06:11:34;9.20;;;8.27;;
11539;SDS011;5826;54.756;9.192;2024-02-14T06:14:00;8.45;;;7.63;;
11539;SDS011;5826;54.756;9.192;2024-02-14T06:16:26;7.70;;;6.90;;
11539;SDS011;5826;54.756;9.192;2024-02-14T06:18:51;8.40;;;6.85;;
11539;SDS011;5826;54.756;9.192;2024-02-14T06:21:18;9.53;;;7.57;;
11539;SDS011;5826;54.756;9.192;2024-02-14T06:23:44;8.25;;;7.45;;
11539;SDS011;5826;54.756;9.192;2024-02-14T06:26:12;9.15;;;8.25;;
11539;SDS011;5826;54.756;9.192;2024-02-14T06:28:37;7.53;;;6.73;;
11539;SDS011;5826;54.756;9.192;2024-02-14T06:31:03;6.80;;;6.13;;
11539;SDS011;5826;54.756;9.192;2024-02-14T06:33:28;7.10;;;6.30;;
11539;SDS011;5826;54.756;9.192;2024-02-14T06:35:54;7.70;;;6.50;;
11539;SDS011;5826;54.756;9.192;2024-02-14T06:38:19;9.27;;;8.30;;
11539;SDS011;5826;54.756;9.192;2024-02-14T06:40:45;9.27;;;8.27;;
11539;SDS011;5826;54.756;9.192;2024-02-14T06:43:11;8.73;;;7.87;;
11539;SDS011;5826;54.756;9.192;2024-02-14T06:45:37;8.93;;;8.07;;
11539;SDS011;5826;54.756;9.192;2024-02-14T06:48:03;11.03;;;9.93;;
11539;SDS011;5826;54.756;9.192;2024-02-14T06:50:29;8.60;;;7.80;;
11539;SDS011;5826;54.756;9.192;2024-02-14T06:52:54;8.40;;;7.37;;
11539;SDS011;5826;54.756;9.192;2024-02-14T06:55:24;7.00;;;6.30;;
11539;SDS011;5826;54.756;9.192;2024-02-14T06:57:50;7.70;;;5.63;;
11539;SDS011;5826;54.756;9.192;2024-02-14T07:00:16;8.10;;;7.30;;
11539;SDS011;5826;54.756;9.192;2024-02-14T07:02:42;9.73;;;8.73;;
11539;SDS011;5826;54.756;9.192;2024-02-14T07:05:08;7.30;;;6.60;;
11539;SDS011;5826;54.756;9.192;2024-02-14T07:07:37;8.87;;;7.97;;
11539;SDS011;5826;54.756;9.192;2024-02-14T07:10:04;11.13;;;8.93;;
11539;SDS011;5826;54.756;9.192;2024-02-14T07:12:31;8.23;;;7.43;;
11539;SDS011;5826;54.756;9.192;2024-02-14T07:14:57;10.07;;;9.00;;
11539;SDS011;5826;54.756;9.192;2024-02-14T07:17:22;10.43;;;8.93;;
11539;SDS011;5826;54.756;9.192;2024-02-14T07:19:48;7.05;;;6.40;;
11539;SDS011;5826;54.756;9.192;2024-02-14T07:22:15;7.95;;;7.15;;
11539;SDS011;5826;54.756;9.192;2024-02-14T07:24:41;5.73;;;5.23;;
11539;SDS011;5826;54.756;9.192;2024-02-14T07:27:07;6.67;;;5.93;;
11539;SDS011;5826;54.756;9.192;2024-02-14T07:29:33;7.78;;;6.97;;
11539;SDS011;5826;54.756;9.192;2024-02-14T07:32:01;7.60;;;6.77;;
11539;SDS011;5826;54.756;9.192;2024-02-14T07:34:27;7.27;;;6.63;;
11539;SDS011;5826;54.756;9.192;2024-02-14T07:36:52;6.57;;;5.97;;
11539;SDS011;5826;54.756;9.192;2024-02-14T07:39:18;7.17;;;6.47;;
11539;SDS011;5826;54.756;9.192;2024-02-14T07:41:44;6.17;;;5.57;;
11539;SDS011;5826;54.756;9.192;2024-02-14T07:44:09;6.60;;;5.97;;
11539;SDS011;5826;54.756;9.192;2024-02-14T07:46:35;6.90;;;6.20;;
11539;SDS011;5826;54.756;9.192;2024-02-14T07:49:00;5.43;;;4.93;;
11539;SDS011;5826;54.756;9.192;2024-02-14T07:51:26;6.60;;;6.00;;
11539;SDS011;5826;54.756;9.192;2024-02-14T07:53:53;6.40;;;5.80;;
11539;SDS011;5826;54.756;9.192;2024-02-14T07:56:19;5.90;;;5.40;;
11539;SDS011;5826;54.756;9.192;2024-02-14T07:58:45;4.85;;;4.45;;
11539;SDS011;5826;54.756;9.192;2024-02-14T08:01:10;6.97;;;6.27;;
11539;SDS011;5826;54.756;9.192;2024-02-14T08:03:36;8.03;;;7.23;;
11539;SDS011;5826;54.756;9.192;2024-02-14T08:06:01;8.50;;;7.67;;
11539;SDS011;5826;54.756;9.192;2024-02-14T08:08:27;6.95;;;6.25;;
11539;SDS011;5826;54.756;9.192;2024-02-14T08:10:53;6.20;;;5.63;;
11539;SDS011;5826;54.756;9.192;2024-02-14T08:13:19;6.73;;;6.03;;
11539;SDS011;5826;54.756;9.192;2024-02-14T08:15:44;8.52;;;7.10;;
11539;SDS011;5826;54.756;9.192;2024-02-14T08:18:10;7.00;;;6.30;;
11539;SDS011;5826;54.756;9.192;2024-02-14T08:20:37;7.47;;;6.07;;
11539;SDS011;5826;54.756;9.192;2024-02-14T08:23:03;7.37;;;6.60;;
11539;SDS011;5826;54.756;9.192;2024-02-14T08:25:28;7.60;;;6.90;;
11539;SDS011;5826;54.756;9.192;2024-02-14T08:27:54;6.82;;;6.22;;
11539;SDS011;5826;54.756;9.192;2024-02-14T08:30:21;6.63;;;5.95;;
11539;SDS011;5826;54.756;9.192;2024-02-14T08:32:46;7.43;;;6.73;;
11539;SDS011;5826;54.756;9.192;2024-02-14T08:35:12;6.13;;;5.63;;
11539;SDS011;5826;54.756;9.192;2024-02-14T08:37:38;7.47;;;6.77;;
11539;SDS011;5826;54.756;9.192;2024-02-14T08:40:05;6.87;;;6.20;;
11539;SDS011;5826;54.756;9.192;2024-02-14T08:42:32;5.45;;;4.95;;
11539;SDS011;5826;54.756;9.192;2024-02-14T08:44:58;5.60;;;5.10;;
11539;SDS011;5826;54.756;9.192;2024-02-14T08:47:24;6.40;;;5.88;;
11539;SDS011;5826;54.756;9.192;2024-02-14T08:49:49;6.70;;;6.10;;
11539;SDS011;5826;54.756;9.192;2024-02-14T08:52:15;7.67;;;6.90;;
11539;SDS011;5826;54.756;9.192;2024-02-14T08:54:40;7.03;;;6.35;;
11539;SDS011;5826;54.756;9.192;2024-02-14T08:57:06;5.78;;;5.28;;
11539;SDS011;5826;54.756;9.192;2024-02-14T08:59:32;6.13;;;5.53;;
11539;SDS011;5826;54.756;9.192;2024-02-14T09:01:57;5.78;;;5.28;;
11539;SDS011;5826;54.756;9.192;2024-02-14T09:04:23;5.53;;;5.00;;
11539;SDS011;5826;54.756;9.192;2024-02-14T09:06:48;6.53;;;5.93;;
11539;SDS011;5826;54.756;9.192;2024-02-14T09:09:14;5.95;;;5.40;;
11539;SDS011;5826;54.756;9.192;2024-02-14T09:11:40;9.30;;;8.40;;
11539;SDS011;5826;54.756;9.192;2024-02-14T09:14:06;6.88;;;6.18;;
11539;SDS011;5826;54.756;9.192;2024-02-14T09:16:34;8.07;;;7.32;;
11539;SDS011;5826;54.756;9.192;2024-02-14T09:19:00;7.70;;;7.00;;
11539;SDS011;5826;54.756;9.192;2024-02-14T09:21:30;8.50;;;7.70;;
11539;SDS011;5826;54.756;9.192;2024-02-14T09:23:55;6.22;;;5.63;;
11539;SDS011;5826;54.756;9.192;2024-02-14T09:26:21;5.72;;;5.28;;
11539;SDS011;5826;54.756;9.192;2024-02-14T09:28:46;6.15;;;5.65;;
11539;SDS011;5826;54.756;9.192;2024-02-14T09:31:16;6.70;;;6.10;;
11539;SDS011;5826;54.756;9.192;2024-02-14T09:33:43;6.43;;;5.73;;
11539;SDS011;5826;54.756;9.192;2024-02-14T09:36:08;6.72;;;6.13;;
11539;SDS011;5826;54.756;9.192;2024-02-14T09:38:34;7.45;;;6.75;;
11539;SDS011;5826;54.756;9.192;2024-02-14T09:41:06;6.43;;;5.82;;
11539;SDS011;5826;54.756;9.192;2024-02-14T09:43:40;6.22;;;5.63;;
11539;SDS011;5826;54.756;9.192;2024-02-14T09:46:09;6.88;;;6.28;;
11539;SDS011;5826;54.756;9.192;2024-02-14T09:48:38;7.32;;;6.63;;
11539;SDS011;5826;54.756;9.192;2024-02-14T09:51:04;6.32;;;5.72;;
11539;SDS011;5826;54.756;9.192;2024-02-14T09:53:32;5.45;;;4.97;;
11539;SDS011;5826;54.756;9.192;2024-02-14T09:55:58;6.25;;;5.70;;
11539;SDS011;5826;54.756;9.192;2024-02-14T09:58:24;7.22;;;6.60;;
11539;SDS011;5826;54.756;9.192;2024-02-14T10:00:50;6.05;;;5.45;;
11539;SDS011;5826;54.756;9.192;2024-02-14T10:03:16;5.05;;;4.55;;
11539;SDS011;5826;54.756;9.192;2024-02-14T10:05:41;5.78;;;5.28;;
11539;SDS011;5826;54.756;9.192;2024-02-14T10:08:07;6.10;;;5.55;;
11539;SDS011;5826;54.756;9.192;2024-02-14T10:10:33;6.00;;;5.47;;
11539;SDS011;5826;54.756;9.192;2024-02-14T10:13:05;6.47;;;5.88;;
11539;SDS011;5826;54.756;9.192;2024-02-14T10:15:31;8.13;;;7.32;;
11539;SDS011;5826;54.756;9.192;2024-02-14T10:17:58;7.65;;;6.95;;
11539;SDS011;5826;54.756;9.192;2024-02-14T10:20:24;6.55;;;5.95;;
11539;SDS011;5826;54.756;9.192;2024-02-14T10:22:51;6.43;;;5.82;;
11539;SDS011;5826;54.756;9.192;2024-02-14T10:25:25;7.72;;;6.55;;
11539;SDS011;5826;54.756;9.192;2024-02-14T10:27:50;5.22;;;4.82;;
11539;SDS011;5826;54.756;9.192;2024-02-14T10:30:16;7.13;;;6.47;;
11539;SDS011;5826;54.756;9.192;2024-02-14T10:32:41;5.95;;;5.35;;
11539;SDS011;5826;54.756;9.192;2024-02-14T10:35:12;7.00;;;6.40;;
11539;SDS011;5826;54.756;9.192;2024-02-14T10:37:39;6.40;;;5.80;;
11539;SDS011;5826;54.756;9.192;2024-02-14T10:40:04;6.78;;;6.18;;
11539;SDS011;5826;54.756;9.192;2024-02-14T10:42:31;5.97;;;5.47;;
11539;SDS011;5826;54.756;9.192;2024-02-14T10:44:57;7.10;;;6.40;;
11539;SDS011;5826;54.756;9.192;2024-02-14T10:47:24;5.75;;;5.25;;
11539;SDS011;5826;54.756;9.192;2024-02-14T10:50:04;5.10;;;4.70;;
11539;SDS011;5826;54.756;9.192;2024-02-14T10:52:32;5.10;;;4.70;;
11539;SDS011;5826;54.756;9.192;2024-02-14T10:54:59;5.85;;;5.32;;
11539;SDS011;5826;54.756;9.192;2024-02-14T10:57:28;6.10;;;5.60;;
11539;SDS011;5826;54.756;9.192;2024-02-14T10:59:54;5.78;;;5.25;;
11539;SDS011;5826;54.756;9.192;2024-02-14T11:02:22;6.00;;;5.50;;
11539;SDS011;5826;54.756;9.192;2024-02-14T11:04:49;5.00;;;4.50;;
11539;SDS011;5826;54.756;9.192;2024-02-14T11:07:18;6.95;;;6.30;;
11539;SDS011;5826;54.756;9.192;2024-02-14T11:09:45;4.78;;;4.38;;
11539;SDS011;5826;54.756;9.192;2024-02-14T11:12:10;7.00;;;6.38;;
11539;SDS011;5826;54.756;9.192;2024-02-14T11:14:36;5.55;;;5.05;;
11539;SDS011;5826;54.756;9.192;2024-02-14T11:17:04;4.30;;;4.00;;
11539;SDS011;5826;54.756;9.192;2024-02-14T11:19:34;6.78;;;6.18;;
11539;SDS011;5826;54.756;9.192;2024-02-14T11:22:10;4.95;;;4.53;;
11539;SDS011;5826;54.756;9.192;2024-02-14T11:24:39;6.03;;;5.45;;
11539;SDS011;5826;54.756;9.192;2024-02-14T11:27:09;5.85;;;5.35;;
11539;SDS011;5826;54.756;9.192;2024-02-14T11:29:38;6.80;;;6.18;;
11539;SDS011;5826;54.756;9.192;2024-02-14T11:32:05;6.57;;;4.47;;
11539;SDS011;5826;54.756;9.192;2024-02-14T11:34:33;4.57;;;4.20;;
11539;SDS011;5826;54.756;9.192;2024-02-14T11:36:59;4.63;;;4.20;;
11539;SDS011;5826;54.756;9.192;2024-02-14T11:39:27;6.10;;;5.55;;
11539;SDS011;5826;54.756;9.192;2024-02-14T11:41:53;3.88;;;3.53;;
11539;SDS011;5826;54.756;9.192;2024-02-14T11:44:18;4.07;;;3.75;;
11539;SDS011;5826;54.756;9.192;2024-02-14T11:46:47;4.28;;;3.88;;
11539;SDS011;5826;54.756;9.192;2024-02-14T11:49:12;4.18;;;3.78;;
11539;SDS011;5826;54.756;9.192;2024-02-14T11:51:38;3.83;;;3.53;;
11539;SDS011;5826;54.756;9.192;2024-02-14T11:54:05;4.05;;;3.65;;
11539;SDS011;5826;54.756;9.192;2024-02-14T11:56:32;4.18;;;3.78;;
11539;SDS011;5826;54.756;9.192;2024-02-14T11:59:03;5.75;;;5.25;;
11539;SDS011;5826;54.756;9.192;2024-02-14T12:01:33;5.28;;;4.82;;
11539;SDS011;5826;54.756;9.192;2024-02-14T12:04:00;3.85;;;3.55;;
11539;SDS011;5826;54.756;9.192;2024-02-14T12:06:33;4.80;;;4.40;;
11539;SDS011;5826;54.756;9.192;2024-02-14T12:09:03;5.30;;;4.80;;
11539;SDS011;5826;54.756;9.192;2024-02-14T12:11:36;4.80;;;4.40;;
11539;SDS011;5826;54.756;9.192;2024-02-14T12:14:03;3.50;;;3.20;;
11539;SDS011;5826;54.756;9.192;2024-02-14T12:16:36;4.63;;;4.22;;
11539;SDS011;5826;54.756;9.192;2024-02-14T12:19:05;3.33;;;3.05;;
11539;SDS011;5826;54.756;9.192;2024-02-14T12:21:38;3.45;;;3.15;;
11539;SDS011;5826;54.756;9.192;2024-02-14T12:24:06;2.80;;;2.60;;
11539;SDS011;5826;54.756;9.192;2024-02-14T12:26:32;2.92;;;2.72;;
11539;SDS011;5826;54.756;9.192;2024-02-14T12:29:01;4.20;;;3.80;;
11539;SDS011;5826;54.756;9.192;2024-02-14T12:31:28;3.20;;;2.90;;
11539;SDS011;5826;54.756;9.192;2024-02-14T12:33:55;3.65;;;3.35;;
11539;SDS011;5826;54.756;9.192;2024-02-14T12:36:26;4.20;;;3.80;;
11539;SDS011;5826;54.756;9.192;2024-02-14T12:38:53;2.50;;;2.30;;
11539;SDS011;5826;54.756;9.192;2024-02-14T12:41:22;3.60;;;3.30;;
11539;SDS011;5826;54.756;9.192;2024-02-14T12:43:56;2.47;;;2.25;;
11539;SDS011;5826;54.756;9.192;2024-02-14T12:46:23;2.92;;;2.65;;
11539;SDS011;5826;54.756;9.192;2024-02-14T12:48:49;3.35;;;3.05;;
11539;SDS011;5826;54.756;9.192;2024-02-14T12:51:14;2.70;;;2.50;;
11539;SDS011;5826;54.756;9.192;2024-02-14T12:53:40;3.10;;;2.80;;
11539;SDS011;5826;54.756;9.192;2024-02-14T12:56:06;2.80;;;2.60;;
11539;SDS011;5826;54.756;9.192;2024-02-14T12:58:32;2.60;;;2.40;;
11539;SDS011;5826;54.756;9.192;2024-02-14T13:00:58;2.30;;;2.10;;
11539;SDS011;5826;54.756;9.192;2024-02-14T13:03:25;1.85;;;1.75;;
11539;SDS011;5826;54.756;9.192;2024-02-14T13:05:51;4.72;;;2.33;;
11539;SDS011;5826;54.756;9.192;2024-02-14T13:08:18;3.08;;;2.83;;
11539;SDS011;5826;54.756;9.192;2024-02-14T13:10:44;2.33;;;2.13;;
11539;SDS011;5826;54.756;9.192;2024-02-14T13:13:10;1.77;;;1.67;;
11539;SDS011;5826;54.756;9.192;2024-02-14T13:15:36;2.20;;;2.00;;
11539;SDS011;5826;54.756;9.192;2024-02-14T13:18:01;2.08;;;1.98;;
11539;SDS011;5826;54.756;9.192;2024-02-14T13:20:27;2.33;;;2.13;;
11539;SDS011;5826;54.756;9.192;2024-02-14T13:22:53;1.63;;;1.52;;
11539;SDS011;5826;54.756;9.192;2024-02-14T13:25:19;2.13;;;1.92;;
11539;SDS011;5826;54.756;9.192;2024-02-14T13:27:44;2.20;;;2.10;;
11539;SDS011;5826;54.756;9.192;2024-02-14T13:30:10;2.38;;;2.17;;
11539;SDS011;5826;54.756;9.192;2024-02-14T13:32:36;2.20;;;2.05;;
11539;SDS011;5826;54.756;9.192;2024-02-14T13:35:02;2.40;;;2.20;;
11539;SDS011;5826;54.756;9.192;2024-02-14T13:37:28;7.97;;;5.22;;
11539;SDS011;5826;54.756;9.192;2024-02-14T13:39:54;4.00;;;3.60;;
11539;SDS011;5826;54.756;9.192;2024-02-14T13:42:19;4.57;;;4.18;;
11539;SDS011;5826;54.756;9.192;2024-02-14T13:44:45;2.83;;;2.63;;
11539;SDS011;5826;54.756;9.192;2024-02-14T13:47:10;2.95;;;2.63;;
11539;SDS011;5826;54.756;9.192;2024-02-14T13:49:36;2.60;;;2.40;;
11539;SDS011;5826;54.756;9.192;2024-02-14T13:52:01;4.70;;;2.60;;
11539;SDS011;5826;54.756;9.192;2024-02-14T13:54:27;2.63;;;2.38;;
11539;SDS011;5826;54.756;9.192;2024-02-14T13:56:52;2.97;;;2.20;;
11539;SDS011;5826;54.756;9.192;2024-02-14T13:59:18;2.50;;;2.30;;
11539;SDS011;5826;54.756;9.192;2024-02-14T14:01:44;3.58;;;2.67;;
11539;SDS011;5826;54.756;9.192;2024-02-14T14:04:11;4.35;;;2.70;;
11539;SDS011;5826;54.756;9.192;2024-02-14T14:06:37;2.28;;;2.08;;
11539;SDS011;5826;54.756;9.192;2024-02-14T14:09:04;2.88;;;2.42;;
11539;SDS011;5826;54.756;9.192;2024-02-14T14:11:30;3.13;;;2.58;;
11539;SDS011;5826;54.756;9.192;2024-02-14T14:13:55;3.40;;;2.72;;
11539;SDS011;5826;54.756;9.192;2024-02-14T14:16:22;3.35;;;2.95;;
11539;SDS011;5826;54.756;9.192;2024-02-14T14:18:48;2.95;;;2.70;;
11539;SDS011;5826;54.756;9.192;2024-02-14T14:21:15;2.63;;;2.10;;
11539;SDS011;5826;54.756;9.192;2024-02-14T14:23:40;2.15;;;1.92;;
11539;SDS011;5826;54.756;9.192;2024-02-14T14:26:06;3.00;;;2.35;;
11539;SDS011;5826;54.756;9.192;2024-02-14T14:28:31;2.63;;;2.05;;
11539;SDS011;5826;54.756;9.192;2024-02-14T14:30:57;3.15;;;1.88;;
11539;SDS011;5826;54.756;9.192;2024-02-14T14:33:24;2.08;;;1.85;;
11539;SDS011;5826;54.756;9.192;2024-02-14T14:35:50;1.85;;;1.65;;
11539;SDS011;5826;54.756;9.192;2024-02-14T14:38:17;3.15;;;2.63;;
11539;SDS011;5826;54.756;9.192;2024-02-14T14:40:43;1.83;;;1.60;;
11539;SDS011;5826;54.756;9.192;2024-02-14T14:43:10;2.28;;;1.70;;
11539;SDS011;5826;54.756;9.192;2024-02-14T14:45:36;1.80;;;1.70;;
11539;SDS011;5826;54.756;9.192;2024-02-14T14:48:03;1.98;;;1.65;;
11539;SDS011;5826;54.756;9.192;2024-02-14T14:50:30;2.15;;;1.83;;
11539;SDS011;5826;54.756;9.192;2024-02-14T14:52:56;2.53;;;2.20;;
11539;SDS011;5826;54.756;9.192;2024-02-14T14:55:25;1.92;;;1.60;;